Time;durP1;ratioP1;P1;durP2;ratioP2;P2;SDS_P1;SDS_P2;PMS_P1;PMS_P2;Temp;Humidity;BMP_temperature;BMP_pressure;BME280_temperature;BME280_humidity;BME280_pressure;Samples;Min_cycle;Max_cycle;Signal;HPM_P1;HPM_P2
2022/12/29 00:00:06;;;;;;;31.83;18.00;;;;;;;2.22;96.84;101135.22;5087603;28;20063;-68
2022/12/29 00:02:31;;;;;;;35.40;19.48;;;;;;;2.20;97.13;101129.13;5057661;28;20472;-68
2022/12/29 00:04:57;;;;;;;32.05;18.85;;;;;;;2.24;97.01;101129.88;5083348;28;20032;-68
2022/12/29 00:07:22;;;;;;;33.67;17.88;;;;;;;2.21;96.65;101119.41;5080836;28;20119;-69
2022/12/29 00:09:48;;;;;;;30.63;18.70;;;;;;;2.20;96.59;101115.91;5075722;28;20047;-67
2022/12/29 00:12:13;;;;;;;34.17;18.60;;;;;;;2.20;96.58;101123.00;5086728;28;20036;-68
2022/12/29 00:17:22;;;;;;;32.30;17.52;;;;;;;2.15;96.47;101114.38;5079247;28;20496;-69
2022/12/29 00:36:19;;;;;;;30.63;17.50;;;;;;;1.99;96.56;101098.25;5070803;28;20090;-69
2022/12/29 00:44:37;;;;;;;36.25;18.88;;;;;;;2.06;96.40;101117.38;5069810;28;20051;-68
2022/12/29 00:47:04;;;;;;;32.13;18.25;;;;;;;2.07;96.30;101119.97;5069948;28;20490;-69
2022/12/29 00:49:30;;;;;;;31.35;17.75;;;;;;;1.90;96.43;101101.28;5069826;28;20052;-68
2022/12/29 00:52:04;;;;;;;32.42;17.90;;;;;;;2.02;96.27;101124.59;5069507;28;20099;-69
2022/12/29 00:54:32;;;;;;;31.33;17.58;;;;;;;2.04;96.48;101122.72;5069672;28;20035;-68
2022/12/29 00:56:58;;;;;;;34.00;18.95;;;;;;;2.00;96.19;101122.94;5069588;28;20024;-69
2022/12/29 00:59:23;;;;;;;33.63;18.05;;;;;;;1.97;96.20;101120.41;5069766;28;20028;-68
2022/12/29 01:01:50;;;;;;;35.15;18.10;;;;;;;1.89;96.32;101111.91;5069298;28;20016;-68
2022/12/29 01:04:16;;;;;;;29.52;17.30;;;;;;;2.01;96.65;101127.31;5067692;28;20036;-69
2022/12/29 01:06:41;;;;;;;35.50;17.95;;;;;;;1.86;96.75;101093.53;5069191;28;20070;-69
2022/12/29 01:11:53;;;;;;;30.90;16.85;;;;;;;1.99;96.26;101116.78;5069269;28;20063;-69
2022/12/29 01:14:19;;;;;;;30.88;18.27;;;;;;;1.98;96.49;101108.91;5069264;28;20063;-69
2022/12/29 01:16:45;;;;;;;31.98;18.10;;;;;;;1.97;96.29;101108.03;5068806;28;20073;-69
2022/12/29 01:19:11;;;;;;;32.30;17.65;;;;;;;1.87;96.18;101096.09;5069242;28;20028;-68
2022/12/29 01:21:36;;;;;;;34.17;18.15;;;;;;;1.94;96.40;101110.81;5069023;28;20024;-68
2022/12/29 01:24:02;;;;;;;33.08;18.13;;;;;;;1.98;96.23;101117.72;5069128;28;20040;-68
2022/12/29 01:26:27;;;;;;;34.65;17.73;;;;;;;1.87;95.91;101103.19;5069107;28;20058;-68
2022/12/29 01:28:53;;;;;;;31.55;18.13;;;;;;;1.95;95.91;101120.47;5068765;28;20781;-68
2022/12/29 01:31:18;;;;;;;30.30;18.58;;;;;;;1.93;95.99;101118.78;5069153;28;20024;-68
2022/12/29 01:33:44;;;;;;;28.08;17.20;;;;;;;1.89;95.65;101128.66;5068913;28;20115;-69
2022/12/29 01:36:11;;;;;;;31.63;16.98;;;;;;;1.89;95.97;101123.38;5068945;28;20032;-69
2022/12/29 01:38:38;;;;;;;27.90;16.85;;;;;;;1.86;96.17;101117.31;5068551;28;20035;-68
2022/12/29 01:41:05;;;;;;;31.67;18.55;;;;;;;1.86;96.18;101114.69;5068330;28;20388;-69
2022/12/29 01:43:49;;;;;;;31.85;18.17;;;;;;;1.80;96.09;101106.97;5068818;28;20036;-69
2022/12/29 01:46:38;;;;;;;31.93;18.10;;;;;;;1.81;96.00;101100.78;5065749;28;20049;-69
2022/12/29 01:49:13;;;;;;;37.08;18.90;;;;;;;1.78;95.99;101103.56;5063897;28;20028;-69
2022/12/29 01:51:43;;;;;;;33.42;17.48;;;;;;;1.77;96.40;101096.53;5067814;28;20123;-69
2022/12/29 01:54:16;;;;;;;30.52;18.80;;;;;;;1.67;95.99;101079.31;5067963;28;20490;-68
2022/12/29 01:56:42;;;;;;;38.75;18.35;;;;;;;1.72;96.25;101078.22;5065072;28;20437;-69
2022/12/29 01:59:15;;;;;;;31.77;17.60;;;;;;;1.74;96.32;101088.75;5066406;28;20036;-69
2022/12/29 02:01:40;;;;;;;31.00;17.20;;;;;;;1.73;96.27;101090.50;5065902;28;20021;-68
2022/12/29 02:04:09;;;;;;;29.38;18.25;;;;;;;1.72;96.56;101085.28;5067356;28;20055;-69
2022/12/29 02:06:43;;;;;;;34.97;17.85;;;;;;;1.53;96.21;101055.19;5067307;28;20701;-68
2022/12/29 02:09:08;;;;;;;35.63;19.67;;;;;;;1.70;96.22;101082.69;5065148;28;20458;-68
2022/12/29 02:11:36;;;;;;;31.35;17.65;;;;;;;1.69;96.63;101083.63;5066916;28;20334;-69
2022/12/29 02:14:04;;;;;;;34.80;18.55;;;;;;;1.72;95.98;101087.94;5067295;28;20036;-69
2022/12/29 02:16:31;;;;;;;34.35;17.83;;;;;;;1.69;96.18;101082.75;5067457;28;20036;-69
2022/12/29 02:19:36;;;;;;;29.30;16.67;;;;;;;1.65;96.33;101082.00;5067109;28;20137;-69
2022/12/29 02:22:40;;;;;;;34.47;17.75;;;;;;;1.61;95.74;101069.84;5057613;28;20051;-68
2022/12/29 02:25:29;;;;;;;31.88;15.75;;;;;;;1.61;96.42;101080.41;5043964;28;20090;-68
2022/12/29 02:28:06;;;;;;;32.03;16.95;;;;;;;1.56;96.73;101069.19;5062183;28;20054;-67
2022/12/29 02:30:49;;;;;;;32.60;17.67;;;;;;;1.56;97.07;101061.25;5067534;28;20059;-68
2022/12/29 02:33:33;;;;;;;26.13;16.15;;;;;;;1.55;97.01;101051.56;5067870;28;20421;-69
2022/12/29 02:36:29;;;;;;;35.95;18.45;;;;;;;1.55;97.18;101051.56;5067633;28;20367;-68
2022/12/29 02:39:09;;;;;;;35.72;18.77;;;;;;;1.56;96.72;101053.31;5067386;28;20482;-69
2022/12/29 02:41:58;;;;;;;33.55;18.33;;;;;;;1.58;96.61;101055.91;5067794;28;20121;-69
2022/12/29 02:44:42;;;;;;;29.92;17.60;;;;;;;1.56;96.62;101055.09;5066294;28;20395;-69
2022/12/29 02:47:46;;;;;;;32.50;17.92;;;;;;;1.53;96.65;101050.78;5067703;28;20032;-67
2022/12/29 02:50:22;;;;;;;32.35;18.35;;;;;;;1.50;96.32;101040.34;5047574;28;20176;-68
2022/12/29 02:52:54;;;;;;;32.88;17.90;;;;;;;1.42;96.98;101033.63;5067343;28;20427;-67
2022/12/29 02:55:19;;;;;;;33.53;18.45;;;;;;;1.54;97.22;101051.63;5067482;28;20441;-68
2022/12/29 02:57:45;;;;;;;31.88;17.60;;;;;;;1.51;96.50;101054.38;5067162;28;20029;-69
2022/12/29 03:00:14;;;;;;;31.80;18.38;;;;;;;1.55;96.27;101062.16;5067755;28;20178;-68
2022/12/29 03:02:55;;;;;;;34.72;18.83;;;;;;;1.53;96.28;101061.38;5067583;28;20066;-69
2022/12/29 03:05:55;;;;;;;35.95;18.83;;;;;;;1.53;96.65;101071.94;5067361;28;20122;-69
2022/12/29 03:08:32;;;;;;;38.83;18.75;;;;;;;1.49;96.10;101077.41;5067170;28;20036;-68
2022/12/29 03:12:07;;;;;;;31.27;18.20;;;;;;;1.37;95.51;101054.94;5067254;28;20356;-68
2022/12/29 03:16:45;;;;;;;32.00;17.58;;;;;;;1.44;95.39;101080.22;5067322;28;20099;-69
2022/12/29 03:19:28;;;;;;;32.97;18.60;;;;;;;1.39;95.63;101074.22;5067251;28;20020;-69
2022/12/29 03:22:28;;;;;;;31.10;17.75;;;;;;;1.37;95.79;101067.28;5066824;28;20028;-68
2022/12/29 03:25:21;;;;;;;36.17;19.48;;;;;;;1.36;95.81;101058.50;5067460;28;20059;-69
2022/12/29 03:28:00;;;;;;;33.38;18.98;;;;;;;1.35;95.41;101058.56;5066989;28;20108;-68
2022/12/29 03:30:28;;;;;;;32.03;18.63;;;;;;;1.37;95.19;101056.72;5067328;28;20047;-67
2022/12/29 03:32:58;;;;;;;36.72;20.55;;;;;;;1.35;94.88;101058.56;5066845;28;20039;-68
2022/12/29 03:35:28;;;;;;;32.97;19.70;;;;;;;1.10;94.73;101019.00;5067267;28;20063;-69
2022/12/29 03:38:18;;;;;;;32.47;18.55;;;;;;;1.26;95.29;101048.34;5066863;28;20103;-69
2022/12/29 03:40:48;;;;;;;35.85;19.73;;;;;;;1.16;95.31;101034.63;5067000;28;20033;-69
2022/12/29 03:43:14;;;;;;;33.00;19.70;;;;;;;1.22;95.37;101044.97;5067211;28;20051;-68
2022/12/29 03:45:40;;;;;;;39.17;19.48;;;;;;;1.20;95.21;101038.91;5066386;28;20052;-69
2022/12/29 03:48:05;;;;;;;36.85;19.77;;;;;;;1.18;95.30;101043.34;5066058;28;20449;-68
2022/12/29 03:50:31;;;;;;;34.42;19.40;;;;;;;1.21;95.41;101052.94;5066473;28;20389;-68
2022/12/29 03:52:56;;;;;;;30.05;18.77;;;;;;;1.13;95.45;101047.09;5066833;28;20037;-69
2022/12/29 03:55:22;;;;;;;31.48;18.15;;;;;;;1.11;95.84;101044.53;5066879;28;20040;-68
2022/12/29 03:57:47;;;;;;;28.15;17.58;;;;;;;1.10;95.74;101040.13;5066965;28;20074;-69
2022/12/29 04:00:13;;;;;;;34.03;18.98;;;;;;;1.14;96.09;101047.03;5067972;28;20094;-69
2022/12/29 04:02:38;;;;;;;30.35;18.23;;;;;;;1.12;96.59;101033.03;5070455;28;20111;-67
2022/12/29 04:05:04;;;;;;;31.90;17.33;;;;;;;1.13;96.31;101040.03;5070556;28;20037;-67
2022/12/29 04:07:30;;;;;;;35.40;19.83;;;;;;;1.13;95.84;101028.63;5070169;28;20457;-69
2022/12/29 04:09:55;;;;;;;32.28;18.30;;;;;;;1.10;95.46;101032.22;5069949;28;20512;-69
2022/12/29 04:12:21;;;;;;;29.50;18.00;;;;;;;0.98;95.92;101016.84;5070030;28;20077;-69
2022/12/29 04:14:46;;;;;;;28.55;16.58;;;;;;;1.09;95.76;101035.78;5070573;28;20044;-69
2022/12/29 04:17:12;;;;;;;27.98;16.92;;;;;;;1.09;95.64;101030.50;5068649;28;20074;-69
2022/12/29 04:19:38;;;;;;;29.75;17.38;;;;;;;1.06;96.23;101022.69;5070061;28;20036;-68
2022/12/29 04:22:03;;;;;;;30.33;18.05;;;;;;;1.08;96.06;101030.56;5069928;28;20036;-68
2022/12/29 04:24:29;;;;;;;32.22;17.70;;;;;;;1.06;95.95;101027.13;5070044;28;20050;-68
2022/12/29 04:26:54;;;;;;;30.80;17.55;;;;;;;0.87;95.62;101007.59;5069712;28;20371;-68
2022/12/29 04:29:20;;;;;;;28.33;17.20;;;;;;;1.06;95.26;101027.97;5069943;28;20094;-68
2022/12/29 04:31:45;;;;;;;29.63;17.30;;;;;;;1.07;95.62;101040.28;5069881;28;20032;-68
2022/12/29 04:34:10;;;;;;;28.55;16.65;;;;;;;1.08;95.46;101044.63;5069645;28;20059;-69
2022/12/29 04:36:36;;;;;;;30.60;16.25;;;;;;;0.97;95.19;101024.81;5069978;28;20030;-68
2022/12/29 04:39:01;;;;;;;29.00;16.55;;;;;;;0.82;95.08;100999.84;5068001;28;20032;-69
2022/12/29 04:41:27;;;;;;;29.80;16.83;;;;;;;1.07;95.34;101049.97;5069720;28;20035;-69
2022/12/29 04:43:52;;;;;;;30.08;16.60;;;;;;;1.01;95.48;101035.22;5069506;28;20040;-68
2022/12/29 04:46:18;;;;;;;28.55;16.63;;;;;;;0.98;95.83;101030.06;5068506;28;20052;-68
2022/12/29 04:48:43;;;;;;;31.60;17.40;;;;;;;1.02;95.63;101042.22;5069588;28;20034;-68
2022/12/29 04:51:09;;;;;;;28.50;16.45;;;;;;;0.88;95.57;101011.97;5069732;28;20470;-68
2022/12/29 04:53:34;;;;;;;32.55;17.15;;;;;;;0.99;95.40;101039.69;5068548;28;20029;-68
2022/12/29 04:56:00;;;;;;;33.22;17.60;;;;;;;0.93;95.41;101029.34;5069134;28;20433;-68
2022/12/29 04:58:25;;;;;;;29.33;16.50;;;;;;;1.04;95.32;101048.31;5069412;28;20032;-68
2022/12/29 05:00:51;;;;;;;29.60;15.68;;;;;;;1.04;95.18;101050.97;5069312;28;20073;-68
2022/12/29 05:03:17;;;;;;;28.52;16.85;;;;;;;1.02;95.10;101050.13;5069522;28;20040;-69
2022/12/29 05:05:42;;;;;;;26.25;15.98;;;;;;;1.07;95.10;101056.13;5069176;28;20035;-68
2022/12/29 05:08:08;;;;;;;27.40;16.02;;;;;;;1.02;95.30;101041.34;5069159;28;20032;-68
2022/12/29 05:10:33;;;;;;;31.45;17.80;;;;;;;0.87;95.23;101018.16;5068754;28;20055;-69
2022/12/29 05:12:59;;;;;;;30.45;17.45;;;;;;;1.01;95.39;101047.56;5068784;28;20025;-68
2022/12/29 05:15:24;;;;;;;30.98;17.15;;;;;;;1.07;95.65;101050.84;5069143;28;20036;-68
2022/12/29 05:17:50;;;;;;;30.35;16.25;;;;;;;0.90;95.56;101018.06;5068930;28;20554;-68
2022/12/29 05:20:16;;;;;;;34.97;18.23;;;;;;;1.06;95.54;101043.81;5067535;28;20029;-69
2022/12/29 05:22:41;;;;;;;30.25;16.63;;;;;;;0.98;94.96;101030.06;5068755;28;20035;-67
2022/12/29 05:25:07;;;;;;;31.33;17.27;;;;;;;1.02;95.31;101034.28;5069034;28;20021;-68
2022/12/29 05:27:32;;;;;;;31.58;17.58;;;;;;;1.09;94.94;101045.47;5068888;28;20024;-68
2022/12/29 05:29:58;;;;;;;29.92;17.95;;;;;;;1.06;95.06;101035.88;5067598;28;20482;-68
2022/12/29 05:32:23;;;;;;;30.20;16.65;;;;;;;1.09;95.58;101037.53;5068637;28;20035;-69
2022/12/29 05:34:49;;;;;;;30.02;16.23;;;;;;;1.09;95.62;101035.78;5068022;28;20024;-67
2022/12/29 05:37:15;;;;;;;31.90;18.33;;;;;;;1.11;95.36;101039.25;5067844;28;20032;-68
2022/12/29 05:39:40;;;;;;;30.48;17.67;;;;;;;1.09;94.90;101025.22;5068014;28;20505;-68
2022/12/29 05:42:06;;;;;;;31.30;17.75;;;;;;;1.09;95.30;101029.63;5067782;28;20063;-68
2022/12/29 05:44:31;;;;;;;31.35;17.88;;;;;;;1.09;95.37;101026.97;5067827;28;20019;-67
2022/12/29 05:46:56;;;;;;;31.48;17.67;;;;;;;0.99;94.95;101008.00;5067640;28;20040;-68
2022/12/29 05:49:22;;;;;;;30.30;17.52;;;;;;;1.09;95.26;101016.41;5068045;28;20032;-69
2022/12/29 05:51:47;;;;;;;30.35;16.83;;;;;;;0.99;95.02;101008.00;5067546;28;20027;-68
2022/12/29 05:54:13;;;;;;;32.92;18.02;;;;;;;1.10;95.09;101010.25;5067611;28;20028;-68
2022/12/29 05:56:38;;;;;;;32.17;18.13;;;;;;;1.11;95.26;101012.81;5066244;28;20082;-70
2022/12/29 05:59:04;;;;;;;27.15;17.10;;;;;;;1.12;94.85;101017.19;5067539;28;20039;-69
2022/12/29 06:01:29;;;;;;;28.58;16.63;;;;;;;1.13;94.48;101008.31;5067960;28;20115;-68
2022/12/29 06:03:54;;;;;;;35.10;17.23;;;;;;;1.11;94.71;101012.81;5068134;28;20025;-69
2022/12/29 06:06:20;;;;;;;32.63;17.75;;;;;;;1.09;95.27;101011.13;5068003;28;20463;-68
2022/12/29 06:08:46;;;;;;;31.10;16.50;;;;;;;1.12;94.89;101001.31;5066371;28;20054;-68
2022/12/29 06:11:11;;;;;;;29.58;15.95;;;;;;;1.11;94.86;100999.63;5067187;28;20429;-68
2022/12/29 06:13:37;;;;;;;35.47;18.10;;;;;;;1.11;94.81;101002.25;5067926;28;20029;-68
2022/12/29 06:16:03;;;;;;;28.70;16.38;;;;;;;1.12;94.76;100998.69;5067623;28;20032;-68
2022/12/29 06:18:28;;;;;;;33.15;16.85;;;;;;;1.02;94.43;100984.13;5067253;28;20032;-68
2022/12/29 06:20:54;;;;;;;36.65;18.63;;;;;;;1.05;94.84;100989.28;5067867;28;20046;-68
2022/12/29 06:23:20;;;;;;;29.48;17.88;;;;;;;1.14;95.11;100993.34;5065868;28;20153;-68
2022/12/29 06:25:47;;;;;;;29.58;17.02;;;;;;;1.13;95.08;100999.56;5065223;28;20032;-69
2022/12/29 06:28:12;;;;;;;31.63;18.45;;;;;;;1.01;94.71;100989.44;5047607;28;20029;-68
2022/12/29 06:30:38;;;;;;;37.55;17.95;;;;;;;1.08;94.77;100999.72;5047849;28;20024;-69
2022/12/29 06:33:04;;;;;;;34.25;18.40;;;;;;;1.07;94.91;100999.78;5047732;28;20041;-68
2022/12/29 06:35:29;;;;;;;28.40;17.02;;;;;;;1.07;95.19;101000.66;5051092;28;20035;-69
2022/12/29 06:37:55;;;;;;;32.95;17.23;;;;;;;1.07;94.62;100992.75;5068258;28;20036;-67
2022/12/29 06:40:21;;;;;;;28.27;17.30;;;;;;;0.99;94.23;100981.59;5067889;28;20048;-68
2022/12/29 06:42:48;;;;;;;33.97;18.02;;;;;;;0.94;94.49;100970.34;5067580;28;20040;-67
2022/12/29 06:45:13;;;;;;;31.33;17.40;;;;;;;1.03;94.90;100995.56;5067533;28;20055;-68
2022/12/29 06:47:38;;;;;;;35.30;17.90;;;;;;;1.10;94.41;101002.31;5067644;28;20127;-68
2022/12/29 06:50:04;;;;;;;30.25;18.17;;;;;;;1.05;94.84;100994.56;5067465;28;20024;-68
2022/12/29 06:52:30;;;;;;;33.83;17.27;;;;;;;1.09;94.77;101001.44;5067708;28;20025;-68
2022/12/29 06:54:55;;;;;;;33.13;17.00;;;;;;;1.12;95.46;101003.97;5067532;28;20521;-69
2022/12/29 06:57:21;;;;;;;34.38;18.63;;;;;;;1.14;95.20;100990.69;5067867;28;20115;-68
2022/12/29 06:59:47;;;;;;;33.90;18.52;;;;;;;1.16;95.29;101004.72;5067446;28;20032;-68
2022/12/29 07:02:14;;;;;;;33.72;19.25;;;;;;;1.08;95.33;100989.16;5067344;28;20036;-67
2022/12/29 07:04:40;;;;;;;28.67;18.77;;;;;;;1.08;95.33;100986.53;5064253;28;20475;-68
2022/12/29 07:07:05;;;;;;;34.20;17.77;;;;;;;1.16;95.39;101005.56;5058134;28;20027;-69
2022/12/29 07:09:31;;;;;;;33.38;17.85;;;;;;;1.22;95.50;101009.75;5079027;28;20063;-69
2022/12/29 07:11:57;;;;;;;35.13;18.67;;;;;;;1.12;95.50;100989.88;5078799;28;20034;-69
2022/12/29 07:14:22;;;;;;;28.27;16.42;;;;;;;1.23;94.95;101007.03;5072037;28;20486;-69
2022/12/29 07:16:48;;;;;;;33.70;17.77;;;;;;;1.20;95.28;101004.56;5069418;28;20123;-68
2022/12/29 07:19:13;;;;;;;33.78;19.40;;;;;;;1.19;95.12;100986.13;5072834;28;20032;-69
2022/12/29 07:21:38;;;;;;;31.38;18.00;;;;;;;1.19;95.25;100994.88;5077767;28;20024;-68
2022/12/29 07:24:04;;;;;;;34.55;18.98;;;;;;;1.26;94.90;100993.72;5079973;28;20059;-69
2022/12/29 07:26:30;;;;;;;36.00;18.35;;;;;;;1.27;95.61;101002.50;5087954;28;20086;-68
2022/12/29 07:28:55;;;;;;;31.05;18.70;;;;;;;1.28;95.62;101006.88;5069549;28;20020;-68
2022/12/29 07:31:22;;;;;;;36.65;19.33;;;;;;;1.34;95.62;101001.34;5080971;28;20059;-68
2022/12/29 07:33:48;;;;;;;37.78;20.10;;;;;;;1.36;95.72;101005.66;5078586;28;20020;-68
2022/12/29 07:36:15;;;;;;;31.00;19.33;;;;;;;1.27;95.62;100992.81;5075531;28;20021;-69
2022/12/29 07:38:42;;;;;;;33.80;19.15;;;;;;;1.42;96.12;101008.03;5089225;28;20089;-68
2022/12/29 07:41:08;;;;;;;34.90;18.92;;;;;;;1.42;96.27;101005.41;5091002;28;20036;-68
2022/12/29 07:43:34;;;;;;;33.67;20.42;;;;;;;1.43;96.13;101007.16;5078648;28;20470;-68
2022/12/29 07:46:00;;;;;;;31.65;18.05;;;;;;;1.49;96.66;101006.88;5071298;28;20052;-69
2022/12/29 07:48:26;;;;;;;34.45;18.88;;;;;;;1.54;96.55;101015.50;5071627;28;20020;-69
2022/12/29 07:50:52;;;;;;;32.63;17.85;;;;;;;1.58;96.52;101022.38;5071085;28;20040;-68
2022/12/29 07:53:17;;;;;;;37.17;19.02;;;;;;;1.66;96.13;101027.34;5070994;28;20475;-67
2022/12/29 07:55:43;;;;;;;36.70;20.25;;;;;;;1.67;96.18;101022.00;5071083;28;20051;-68
2022/12/29 07:58:08;;;;;;;36.78;19.80;;;;;;;1.67;96.44;101014.09;5070507;28;20056;-69
2022/12/29 08:00:34;;;;;;;34.10;19.15;;;;;;;1.70;95.83;101010.44;5069532;28;20364;-68
2022/12/29 08:02:59;;;;;;;33.78;19.38;;;;;;;1.77;96.01;101006.63;5069812;28;20040;-68
2022/12/29 08:05:24;;;;;;;39.47;21.50;;;;;;;1.78;96.37;100998.63;5067241;28;20036;-69
2022/12/29 08:07:50;;;;;;;37.85;20.05;;;;;;;1.85;96.12;101012.47;5067435;28;20032;-69
2022/12/29 08:10:16;;;;;;;37.42;20.58;;;;;;;1.89;96.29;101009.63;5068278;28;20032;-69
2022/12/29 08:12:43;;;;;;;38.15;20.80;;;;;;;1.93;96.99;101002.41;5069149;28;20064;-69
2022/12/29 08:15:10;;;;;;;36.25;22.25;;;;;;;1.96;96.75;101005.81;5069601;28;20056;-68
2022/12/29 08:17:36;;;;;;;37.53;21.33;;;;;;;1.94;97.09;100997.06;5070008;28;20505;-68
2022/12/29 08:20:02;;;;;;;35.67;20.35;;;;;;;2.02;97.35;100992.34;5069609;28;20020;-67
2022/12/29 08:22:27;;;;;;;38.50;21.05;;;;;;;2.11;97.67;100997.25;5068101;28;20016;-68
2022/12/29 08:24:53;;;;;;;40.08;21.98;;;;;;;2.19;97.87;100991.59;5069686;28;20111;-68
2022/12/29 08:27:18;;;;;;;37.95;21.58;;;;;;;2.26;97.57;100993.91;5069525;28;20021;-69
2022/12/29 08:29:44;;;;;;;40.05;23.75;;;;;;;2.36;97.89;100997.03;5069725;28;20035;-68
2022/12/29 08:32:09;;;;;;;42.03;22.92;;;;;;;2.19;97.78;100950.13;5069133;28;20052;-69
2022/12/29 08:34:35;;;;;;;36.67;22.60;;;;;;;2.38;97.73;100954.63;5069667;28;20041;-68
2022/12/29 08:37:00;;;;;;;40.42;22.52;;;;;;;2.66;97.49;100994.81;5068988;28;20023;-68
2022/12/29 08:39:26;;;;;;;40.92;22.17;;;;;;;2.67;97.29;100983.31;5069388;28;20029;-68
2022/12/29 08:41:53;;;;;;;37.08;23.50;;;;;;;2.85;97.13;100990.41;5069410;28;20040;-69
2022/12/29 08:44:18;;;;;;;40.78;23.77;;;;;;;2.84;96.60;100986.06;5067781;28;20060;-69
2022/12/29 08:46:44;;;;;;;42.00;23.17;;;;;;;2.97;96.40;100987.22;5068902;28;20542;-69
2022/12/29 08:49:10;;;;;;;44.17;22.73;;;;;;;3.02;96.35;100986.06;5070002;28;20094;-69
2022/12/29 08:51:35;;;;;;;38.70;22.83;;;;;;;2.99;96.20;100978.25;5068493;28;20044;-69
2022/12/29 08:54:01;;;;;;;33.40;20.70;;;;;;;3.19;96.17;101004.66;5070206;28;20040;-69
2022/12/29 08:56:27;;;;;;;35.60;20.65;;;;;;;3.26;95.71;101008.75;5067478;28;20029;-69
2022/12/29 08:58:53;;;;;;;36.28;21.77;;;;;;;3.32;95.45;101016.41;5068613;28;20039;-68
2022/12/29 09:01:19;;;;;;;34.83;21.90;;;;;;;3.39;95.28;101032.91;5066613;28;20060;-69
2022/12/29 09:03:45;;;;;;;38.88;21.77;;;;;;;3.45;95.02;101046.72;5068615;28;20049;-69
2022/12/29 09:06:11;;;;;;;39.90;22.27;;;;;;;3.48;94.56;101028.00;5068319;28;20494;-69
2022/12/29 09:08:37;;;;;;;34.65;22.52;;;;;;;3.53;94.74;101039.28;5068825;28;20032;-70
2022/12/29 09:11:20;;;;;;;38.85;23.35;;;;;;;3.54;94.36;101021.56;5068417;28;20430;-69
2022/12/29 09:13:46;;;;;;;35.45;22.38;;;;;;;3.59;94.46;101023.06;5068754;28;20116;-69
2022/12/29 09:16:11;;;;;;;38.35;23.23;;;;;;;3.67;94.08;101020.91;5067097;28;20036;-70
2022/12/29 09:18:37;;;;;;;87.50;45.75;;;;;;;3.66;94.09;101018.31;5068609;28;20470;-68
2022/12/29 09:21:04;;;;;;;67.68;39.85;;;;;;;3.70;94.07;101014.59;5068612;28;20094;-68
2022/12/29 09:23:31;;;;;;;51.97;32.60;;;;;;;3.77;94.54;101014.22;5068553;28;20119;-68
2022/12/29 09:25:57;;;;;;;46.90;29.92;;;;;;;3.88;94.56;101017.22;5069060;28;20100;-68
2022/12/29 09:28:23;;;;;;;48.38;28.73;;;;;;;3.99;94.80;101017.53;5069588;28;20020;-68
2022/12/29 09:30:49;;;;;;;57.63;32.25;;;;;;;4.10;94.38;101009.88;5067354;28;20029;-68
2022/12/29 09:33:16;;;;;;;61.25;34.55;;;;;;;4.27;93.60;101009.03;5057856;28;20041;-69
2022/12/29 09:35:50;;;;;;;55.97;33.50;;;;;;;4.35;93.01;100999.75;5062190;28;20400;-69
2022/12/29 09:38:16;;;;;;;48.33;29.40;;;;;;;4.53;92.09;100992.63;5072364;28;20043;-71
2022/12/29 09:40:45;;;;;;;42.95;25.40;;;;;;;4.61;91.18;100993.06;5067870;28;20037;-70
2022/12/29 09:43:33;;;;;;;40.33;23.92;;;;;;;4.66;90.38;100983.06;5066965;28;20507;-68
2022/12/29 09:46:06;;;;;;;40.15;24.65;;;;;;;4.69;90.06;100974.94;5067426;28;20052;-67
2022/12/29 09:48:37;;;;;;;42.40;24.42;;;;;;;4.69;89.64;100977.59;5064716;28;20024;-67
2022/12/29 09:51:10;;;;;;;34.65;22.65;;;;;;;4.72;89.49;100967.66;5058731;28;20459;-67
2022/12/29 09:53:37;;;;;;;38.05;24.05;;;;;;;4.74;89.98;100975.53;5065581;28;20055;-68
2022/12/29 09:56:11;;;;;;;33.90;22.13;;;;;;;4.75;89.92;100963.97;5065793;28;20020;-69
2022/12/29 09:58:43;;;;;;;47.17;25.10;;;;;;;4.73;89.68;100961.41;5067819;28;20036;-68
2022/12/29 10:01:26;;;;;;;34.72;22.45;;;;;;;4.77;90.42;100959.41;5071537;28;20040;-68
2022/12/29 10:03:55;;;;;;;42.47;23.23;;;;;;;4.81;90.96;100963.66;5071258;28;20020;-68
2022/12/29 10:06:20;;;;;;;34.97;21.70;;;;;;;4.85;91.17;100953.69;5073663;28;20015;-69
2022/12/29 10:08:57;;;;;;;33.22;21.55;;;;;;;4.88;91.70;100951.75;5077462;28;20106;-68
2022/12/29 10:12:00;;;;;;;34.80;21.65;;;;;;;4.91;91.60;100950.72;5074079;28;20032;-69
2022/12/29 10:14:37;;;;;;;38.72;23.80;;;;;;;4.94;91.98;100962.03;5062990;28;20096;-69
2022/12/29 10:17:22;;;;;;;33.97;21.75;;;;;;;4.97;92.13;100955.69;5066787;28;20028;-69
2022/12/29 10:20:49;;;;;;;39.85;23.83;;;;;;;5.00;92.47;100945.72;5068636;28;20538;-68
2022/12/29 10:23:29;;;;;;;36.67;22.42;;;;;;;5.10;92.90;100956.72;5050163;28;20051;-69
2022/12/29 10:25:59;;;;;;;35.88;23.00;;;;;;;5.10;93.14;100936.34;5026174;28;20468;-69
2022/12/29 10:28:31;;;;;;;43.50;23.35;;;;;;;5.13;93.14;100929.97;5053194;28;20037;-69
2022/12/29 10:30:58;;;;;;;44.83;27.15;;;;;;;5.20;93.35;100936.66;5063133;28;20478;-69
2022/12/29 10:33:34;;;;;;;52.92;32.47;;;;;;;5.27;93.50;100930.94;5066218;28;20028;-69
2022/12/29 10:36:15;;;;;;;49.47;30.73;;;;;;;5.27;93.79;100920.28;5047647;28;20112;-69
2022/12/29 10:39:03;;;;;;;43.58;25.77;;;;;;;5.31;93.73;100915.63;5047333;28;20078;-70
2022/12/29 10:41:41;;;;;;;37.33;23.85;;;;;;;5.37;93.98;100923.28;5062799;28;20099;-69
2022/12/29 10:44:12;;;;;;;33.35;22.83;;;;;;;5.40;93.44;100916.00;5055727;28;20032;-69
2022/12/29 10:46:38;;;;;;;35.40;22.58;;;;;;;5.48;93.12;100916.38;5067769;28;20078;-69
2022/12/29 10:49:05;;;;;;;37.80;22.70;;;;;;;5.52;92.87;100923.28;5062675;28;20062;-70
2022/12/29 10:51:36;;;;;;;35.80;22.58;;;;;;;5.54;93.28;100915.16;5067461;28;20021;-70
2022/12/29 10:54:10;;;;;;;38.17;22.90;;;;;;;5.56;93.67;100908.84;5066825;28;20112;-72
2022/12/29 10:56:44;;;;;;;35.25;21.88;;;;;;;5.55;93.59;100904.44;5065656;28;20099;-73
2022/12/29 10:59:20;;;;;;;36.83;22.67;;;;;;;5.59;93.50;100883.84;5067480;28;20052;-70
2022/12/29 11:01:57;;;;;;;37.42;23.52;;;;;;;5.67;93.28;100889.59;5066023;28;20031;-68
2022/12/29 11:05:02;;;;;;;34.95;21.67;;;;;;;5.66;93.11;100893.19;5047110;28;20106;-72
2022/12/29 11:07:30;;;;;;;40.47;23.83;;;;;;;5.66;93.72;100883.41;5060112;28;20047;-69
2022/12/29 11:10:15;;;;;;;37.20;23.05;;;;;;;5.69;93.79;100866.41;5049038;28;20068;-69
2022/12/29 11:12:40;;;;;;;41.03;23.92;;;;;;;5.76;93.74;100873.94;5058677;28;20031;-69
2022/12/29 11:15:07;;;;;;;39.08;23.98;;;;;;;5.82;93.97;100872.75;5066356;28;20036;-69
2022/12/29 11:17:47;;;;;;;37.05;24.05;;;;;;;5.85;93.44;100877.88;5055885;28;20454;-68
2022/12/29 11:20:39;;;;;;;38.55;24.40;;;;;;;5.84;93.66;100870.84;5065757;28;20703;-68
2022/12/29 11:23:29;;;;;;;40.90;25.20;;;;;;;5.84;93.52;100865.53;5050198;28;20637;-69
2022/12/29 11:26:10;;;;;;;45.08;24.65;;;;;;;5.89;94.04;100871.41;5050112;28;20494;-69
2022/12/29 11:28:37;;;;;;;40.40;24.02;;;;;;;5.91;93.81;100856.22;5051859;28;20102;-69
2022/12/29 11:31:06;;;;;;;44.28;23.75;;;;;;;5.93;93.44;100849.03;5050687;28;20033;-69
2022/12/29 11:33:34;;;;;;;36.80;23.05;;;;;;;5.92;93.51;100834.84;5050530;28;20029;-67
2022/12/29 11:36:05;;;;;;;37.20;23.08;;;;;;;6.08;93.82;100848.94;5050440;28;20047;-69
2022/12/29 11:38:36;;;;;;;40.88;23.25;;;;;;;6.10;93.50;100841.69;5050766;28;20395;-68
2022/12/29 11:41:05;;;;;;;36.08;23.15;;;;;;;6.13;92.83;100846.81;5050180;28;20033;-69
2022/12/29 11:43:34;;;;;;;36.08;23.27;;;;;;;6.14;93.22;100832.59;5069981;28;20055;-69
2022/12/29 11:46:04;;;;;;;39.63;24.88;;;;;;;6.09;93.35;100812.50;5057746;28;20147;-69
2022/12/29 11:48:41;;;;;;;38.45;24.50;;;;;;;6.24;93.30;100833.72;5065741;28;20035;-68
2022/12/29 11:51:08;;;;;;;34.15;22.50;;;;;;;6.26;92.98;100834.47;5065684;28;20154;-71
2022/12/29 11:53:43;;;;;;;36.50;23.27;;;;;;;6.27;93.59;100824.69;5061219;28;20039;-69
2022/12/29 11:56:14;;;;;;;40.92;24.58;;;;;;;6.33;93.46;100826.97;5067855;27;20048;-68
2022/12/29 11:58:39;;;;;;;34.15;22.05;;;;;;;6.37;92.46;100832.00;5052982;28;20025;-70